createdAt,value
2023-01-07T00:02:18.919Z,10.78
2023-01-07T00:04:48.973Z,10.75
2023-01-07T00:07:18.886Z,10.76
2023-01-07T00:09:48.790Z,10.75
2023-01-07T00:12:18.814Z,10.75
2023-01-07T00:14:48.792Z,10.76
2023-01-07T00:17:21.492Z,10.77
2023-01-07T00:19:51.460Z,10.74
2023-01-07T00:22:21.432Z,10.65
2023-01-07T00:24:51.344Z,10.61
2023-01-07T00:27:21.336Z,10.70
2023-01-07T00:29:51.276Z,10.74
2023-01-07T00:32:43.803Z,10.75
2023-01-07T00:35:23.127Z,10.66
2023-01-07T00:37:53.922Z,10.69
2023-01-07T00:40:24.334Z,10.58
2023-01-07T00:43:01.466Z,10.56
2023-01-07T00:45:33.235Z,10.54
2023-01-07T00:48:07.172Z,10.48
2023-01-07T00:50:39.054Z,10.55
2023-01-07T00:53:09.441Z,10.63
2023-01-07T00:55:39.504Z,10.79
2023-01-07T00:58:09.723Z,10.89
2023-01-07T01:00:40.119Z,10.96
2023-01-07T01:03:15.801Z,10.96
2023-01-07T01:05:45.802Z,10.97
2023-01-07T01:08:15.908Z,10.93
2023-01-07T01:10:47.026Z,10.87
2023-01-07T01:13:20.191Z,10.83
2023-01-07T01:15:51.586Z,10.75
2023-01-07T01:18:24.314Z,10.74
2023-01-07T01:20:55.086Z,10.73
2023-01-07T01:23:25.568Z,10.74
2023-01-07T01:25:55.520Z,10.73
2023-01-07T01:28:26.051Z,10.74
2023-01-07T01:30:57.859Z,10.70
2023-01-07T01:33:33.785Z,10.57
2023-01-07T01:36:08.053Z,10.57
2023-01-07T01:38:38.064Z,10.57
2023-01-07T01:41:09.115Z,10.63
2023-01-07T01:43:46.702Z,10.65
2023-01-07T01:46:21.251Z,10.64
2023-01-07T01:48:59.195Z,10.68
2023-01-07T01:51:34.906Z,10.72
2023-01-07T01:54:07.903Z,10.77
2023-01-07T01:56:43.804Z,10.78
2023-01-07T01:59:20.314Z,10.80
2023-01-07T02:01:51.300Z,10.80
2023-01-07T02:04:27.345Z,10.82
2023-01-07T02:07:02.238Z,10.81
2023-01-07T02:09:33.629Z,10.80
2023-01-07T02:12:12.615Z,10.80
2023-01-07T02:15:00.294Z,10.75
2023-01-07T02:17:42.111Z,10.66
2023-01-07T02:20:33.487Z,10.62
2023-01-07T02:23:33.447Z,10.62
2023-01-07T02:26:31.686Z,10.50
2023-01-07T02:29:28.451Z,10.50
2023-01-07T02:32:22.206Z,10.55
2023-01-07T02:35:05.190Z,10.59
2023-01-07T02:37:43.138Z,10.63
2023-01-07T02:40:19.793Z,10.64
2023-01-07T02:43:02.239Z,10.64
2023-01-07T02:45:35.289Z,10.63
2023-01-07T02:48:11.364Z,10.67
2023-01-07T02:50:41.367Z,10.65
2023-01-07T02:53:16.227Z,10.63
2023-01-07T02:55:59.479Z,10.57
2023-01-07T02:58:49.383Z,10.59
2023-01-07T03:01:50.152Z,10.62
2023-01-07T03:04:48.305Z,10.58
2023-01-07T03:07:29.777Z,10.64
2023-01-07T03:10:08.385Z,10.58
2023-01-07T03:12:46.416Z,10.57
2023-01-07T03:15:20.352Z,10.49
2023-01-07T03:17:56.099Z,10.54
2023-01-07T03:20:32.346Z,10.53
2023-01-07T03:23:07.498Z,10.58
2023-01-07T03:25:43.298Z,10.58
2023-01-07T03:28:18.773Z,10.61
2023-01-07T03:30:50.828Z,10.62
2023-01-07T03:33:26.900Z,10.60
2023-01-07T03:36:02.781Z,10.58
2023-01-07T03:38:33.398Z,10.56
2023-01-07T03:41:04.879Z,10.49
2023-01-07T03:43:32.765Z,10.45
2023-01-07T03:46:03.142Z,10.46
2023-01-07T03:48:33.233Z,10.50
2023-01-07T03:51:05.924Z,10.49
2023-01-07T03:53:36.194Z,10.45
2023-01-07T03:56:06.490Z,10.48
2023-01-07T03:58:36.496Z,10.47
2023-01-07T04:01:06.612Z,10.45
2023-01-07T04:03:36.849Z,10.47
2023-01-07T04:06:09.608Z,10.42
2023-01-07T04:08:40.402Z,10.39
2023-01-07T04:11:10.404Z,10.47
2023-01-07T04:13:41.480Z,10.49
2023-01-07T04:16:11.686Z,10.52
2023-01-07T04:18:41.640Z,10.52
2023-01-07T04:21:14.294Z,10.49
2023-01-07T04:23:44.500Z,10.37
2023-01-07T04:26:14.451Z,10.36
2023-01-07T04:28:45.971Z,10.36
2023-01-07T04:31:15.960Z,10.38
2023-01-07T04:33:46.000Z,10.39
2023-01-07T04:36:18.806Z,10.38
2023-01-07T04:38:49.020Z,10.33
2023-01-07T04:41:19.060Z,10.27
2023-01-07T04:43:49.098Z,10.16
2023-01-07T04:46:19.220Z,10.16
2023-01-07T04:48:49.350Z,10.11
2023-01-07T04:51:23.001Z,10.01
2023-01-07T04:53:53.723Z,10.09
2023-01-07T04:56:23.853Z,10.05
2023-01-07T04:58:54.593Z,10.08
2023-01-07T05:01:25.673Z,10.14
2023-01-07T05:03:55.722Z,10.11
2023-01-07T05:06:28.320Z,10.15
2023-01-07T05:08:58.260Z,10.16
2023-01-07T05:11:28.511Z,10.10
2023-01-07T05:14:03.194Z,10.10
2023-01-07T05:16:36.262Z,10.11
2023-01-07T05:19:10.700Z,10.18
2023-01-07T05:21:47.910Z,10.16
2023-01-07T05:24:19.228Z,10.22
2023-01-07T05:26:49.221Z,10.29
2023-01-07T05:29:21.167Z,10.36
2023-01-07T05:31:52.012Z,10.42
2023-01-07T05:34:22.007Z,10.42
2023-01-07T05:36:54.964Z,10.45
2023-01-07T05:39:26.047Z,10.50
2023-01-07T05:41:56.393Z,10.54
2023-01-07T05:44:28.099Z,10.57
2023-01-07T05:46:58.114Z,10.59
2023-01-07T05:49:28.091Z,10.58
2023-01-07T05:52:00.624Z,10.59
2023-01-07T05:54:30.531Z,10.58
2023-01-07T05:57:00.555Z,10.49
2023-01-07T05:59:30.521Z,10.44
2023-01-07T06:02:00.474Z,10.48
2023-01-07T06:04:30.777Z,10.52
2023-01-07T06:07:03.438Z,10.57
2023-01-07T06:09:33.409Z,10.57
2023-01-07T06:12:03.392Z,10.55
2023-01-07T06:14:33.387Z,10.54
2023-01-07T06:17:03.363Z,10.55
2023-01-07T06:19:33.298Z,10.51
2023-01-07T06:22:05.829Z,10.53
2023-01-07T06:24:38.686Z,10.56
2023-01-07T06:27:08.609Z,10.58
2023-01-07T06:29:42.630Z,10.58
2023-01-07T06:32:12.879Z,10.47
2023-01-07T06:34:43.036Z,10.53
2023-01-07T06:37:17.921Z,10.44
2023-01-07T06:39:47.936Z,10.38
2023-01-07T06:42:17.873Z,10.43
2023-01-07T06:44:47.892Z,10.39
2023-01-07T06:47:17.875Z,10.19
2023-01-07T06:49:47.979Z,10.34
2023-01-07T06:52:20.717Z,10.37
2023-01-07T06:54:50.690Z,10.41
2023-01-07T06:57:20.636Z,10.45
2023-01-07T06:59:50.581Z,10.37
2023-01-07T07:02:36.601Z,10.39
2023-01-07T07:05:06.992Z,10.34
2023-01-07T07:07:45.520Z,10.14
2023-01-07T07:10:15.486Z,10.21
2023-01-07T07:12:45.397Z,10.26
2023-01-07T07:15:15.428Z,10.20
2023-01-07T07:17:45.461Z,10.15
2023-01-07T07:20:15.471Z,10.24
2023-01-07T07:22:51.365Z,10.14
2023-01-07T07:25:21.437Z,10.08
2023-01-07T07:27:51.597Z,10.15
2023-01-07T07:30:21.873Z,10.09
2023-01-07T07:33:14.886Z,10.21
2023-01-07T07:35:44.974Z,10.27
2023-01-07T07:38:18.610Z,10.40
2023-01-07T07:40:48.859Z,10.39
2023-01-07T07:43:19.339Z,10.42
2023-01-07T07:45:49.333Z,10.47
2023-01-07T07:48:19.348Z,10.52
2023-01-07T07:50:53.564Z,10.54
2023-01-07T07:53:26.222Z,10.50
2023-01-07T07:55:56.157Z,10.40
2023-01-07T07:58:26.102Z,10.37
2023-01-07T08:00:56.364Z,10.37
2023-01-07T08:03:26.674Z,10.38
2023-01-07T08:05:56.619Z,10.46
2023-01-07T08:08:29.180Z,10.59
2023-01-07T08:10:59.204Z,10.55
2023-01-07T08:13:29.169Z,10.51
2023-01-07T08:15:59.170Z,10.41
2023-01-07T08:18:29.152Z,10.44
2023-01-07T08:20:59.042Z,10.55
2023-01-07T08:23:31.654Z,10.52
2023-01-07T08:26:03.361Z,10.46
2023-01-07T08:28:33.620Z,10.54
2023-01-07T08:31:04.820Z,10.50
2023-01-07T08:33:38.759Z,10.41
2023-01-07T08:36:22.958Z,10.44
2023-01-07T08:38:57.628Z,10.41
2023-01-07T08:41:27.929Z,10.62
2023-01-07T08:43:57.915Z,10.64
2023-01-07T08:46:28.999Z,10.73
2023-01-07T08:48:59.007Z,10.80
2023-01-07T08:51:29.009Z,10.76
2023-01-07T08:54:01.611Z,10.76
2023-01-07T08:56:33.543Z,10.65
2023-01-07T08:59:03.571Z,10.78
2023-01-07T09:01:33.565Z,10.89
2023-01-07T09:04:03.614Z,10.96
2023-01-07T09:06:33.608Z,11.05
2023-01-07T09:09:07.956Z,11.01
2023-01-07T09:11:37.980Z,11.11
2023-01-07T09:14:08.078Z,10.99
2023-01-07T09:16:38.070Z,10.85
2023-01-07T09:19:08.057Z,11.00
2023-01-07T09:21:38.114Z,11.02
2023-01-07T09:24:11.163Z,11.13
2023-01-07T09:26:41.211Z,10.87
2023-01-07T09:29:11.151Z,10.96
2023-01-07T09:31:41.189Z,10.86
2023-01-07T09:34:11.175Z,10.94
2023-01-07T09:36:41.168Z,10.88
2023-01-07T09:39:15.403Z,10.99
2023-01-07T09:41:58.270Z,10.97
2023-01-07T09:44:36.730Z,10.88
2023-01-07T09:47:09.219Z,11.03
2023-01-07T09:49:39.818Z,11.00
2023-01-07T09:52:15.140Z,10.96
2023-01-07T09:54:51.233Z,11.10
2023-01-07T09:57:21.298Z,10.83
2023-01-07T09:59:54.297Z,10.93
2023-01-07T10:02:36.249Z,11.01
2023-01-07T10:05:20.753Z,11.02
2023-01-07T10:08:29.197Z,10.98
2023-01-07T10:11:05.445Z,11.19
2023-01-07T10:13:46.182Z,11.29
2023-01-07T10:16:23.166Z,11.32
2023-01-07T10:19:05.187Z,11.38
2023-01-07T10:21:44.522Z,11.23
2023-01-07T10:24:23.853Z,11.27
2023-01-07T10:26:59.459Z,11.17
2023-01-07T10:29:35.160Z,11.17
2023-01-07T10:32:13.412Z,11.28
2023-01-07T10:34:49.428Z,11.26
2023-01-07T10:37:32.702Z,11.27
2023-01-07T10:40:16.387Z,11.39
2023-01-07T10:42:56.451Z,11.22
2023-01-07T10:45:39.798Z,11.36
2023-01-07T10:48:47.091Z,11.48
2023-01-07T10:51:32.196Z,11.68
2023-01-07T10:54:12.308Z,11.77
2023-01-07T10:56:45.937Z,11.80
2023-01-07T10:59:25.971Z,11.71
2023-01-07T11:01:57.844Z,11.75
2023-01-07T11:04:29.109Z,11.63
2023-01-07T11:07:04.237Z,11.45
2023-01-07T11:09:38.194Z,11.46
2023-01-07T11:12:14.862Z,11.67
2023-01-07T11:14:49.207Z,11.71
2023-01-07T11:17:30.368Z,11.91
2023-01-07T11:20:00.334Z,11.97
2023-01-07T11:22:35.376Z,12.09
2023-01-07T11:25:31.311Z,12.16
2023-01-07T11:28:06.096Z,12.27
2023-01-07T11:30:39.063Z,12.33
2023-01-07T11:33:10.339Z,12.35
2023-01-07T11:35:44.295Z,12.28
2023-01-07T11:38:30.480Z,12.33
2023-01-07T11:41:01.487Z,12.12
2023-01-07T11:43:37.048Z,12.07
2023-01-07T11:46:19.955Z,12.09
2023-01-07T11:48:57.410Z,12.30
2023-01-07T11:51:27.873Z,12.33
2023-01-07T11:54:00.306Z,11.92
2023-01-07T11:56:33.193Z,12.11
2023-01-07T11:59:26.182Z,12.29
2023-01-07T12:02:01.708Z,12.20
2023-01-07T12:04:33.571Z,12.11
2023-01-07T12:07:07.296Z,12.16
2023-01-07T12:09:40.669Z,12.15
2023-01-07T12:12:27.230Z,12.30
2023-01-07T12:14:58.421Z,12.23
2023-01-07T12:17:34.239Z,12.31
2023-01-07T12:20:34.661Z,12.40
2023-01-07T12:23:16.045Z,12.45
2023-01-07T12:25:54.413Z,12.17
2023-01-07T12:28:40.166Z,12.35
2023-01-07T12:31:27.555Z,12.49
2023-01-07T12:34:10.345Z,12.39
2023-01-07T12:36:49.226Z,12.48
2023-01-07T12:39:31.876Z,12.63
2023-01-07T12:42:09.269Z,12.57
2023-01-07T12:44:42.294Z,12.67
2023-01-07T12:47:30.867Z,12.73
2023-01-07T12:50:14.570Z,12.75
2023-01-07T12:52:48.592Z,12.79
2023-01-07T12:55:22.455Z,12.72
2023-01-07T12:58:06.602Z,12.79
2023-01-07T13:00:40.079Z,12.61
2023-01-07T13:03:21.149Z,12.42
2023-01-07T13:05:57.661Z,12.54
2023-01-07T13:08:40.542Z,12.58
2023-01-07T13:11:41.293Z,12.74
2023-01-07T13:14:40.971Z,12.76
2023-01-07T13:17:18.640Z,12.58
2023-01-07T13:19:48.740Z,12.57
2023-01-07T13:22:32.560Z,12.57
2023-01-07T13:25:16.663Z,12.68
2023-01-07T13:28:16.763Z,12.66
2023-01-07T13:30:56.791Z,12.61
2023-01-07T13:33:31.749Z,12.80
2023-01-07T13:36:14.325Z,12.89
2023-01-07T13:39:19.114Z,12.73
2023-01-07T13:42:05.527Z,12.74
2023-01-07T13:44:57.677Z,12.68
2023-01-07T13:47:44.256Z,12.68
2023-01-07T13:50:23.449Z,12.52
2023-01-07T13:53:05.905Z,12.63
2023-01-07T13:55:41.812Z,12.72
2023-01-07T13:58:46.665Z,12.65
2023-01-07T14:01:21.610Z,12.63
2023-01-07T14:03:53.521Z,12.81
2023-01-07T14:06:42.611Z,12.87
2023-01-07T14:09:30.156Z,13.01
2023-01-07T14:12:37.706Z,12.89
2023-01-07T14:15:34.975Z,12.86
2023-01-07T14:18:19.934Z,12.89
2023-01-07T14:20:54.382Z,12.86
2023-01-07T14:23:32.457Z,13.29
2023-01-07T14:26:15.840Z,13.94
2023-01-07T14:29:12.177Z,14.20
2023-01-07T14:32:30.197Z,14.72
2023-01-07T14:35:05.337Z,15.18
2023-01-07T14:37:42.217Z,15.26
2023-01-07T14:40:46.427Z,14.59
2023-01-07T14:44:04.444Z,13.95
2023-01-07T14:46:53.620Z,13.54
2023-01-07T14:49:59.884Z,13.24
2023-01-07T14:53:08.183Z,12.75
2023-01-07T14:56:13.719Z,12.86
2023-01-07T14:59:19.838Z,12.84
2023-01-07T15:02:22.842Z,12.79
2023-01-07T15:05:17.944Z,12.76
2023-01-07T15:08:13.362Z,12.74
2023-01-07T15:10:57.306Z,12.59
2023-01-07T15:13:40.767Z,12.60
2023-01-07T15:16:16.140Z,12.45
2023-01-07T15:18:52.672Z,12.41
2023-01-07T15:21:33.477Z,12.42
2023-01-07T15:24:14.394Z,12.36
2023-01-07T15:26:53.557Z,12.32
2023-01-07T15:29:34.221Z,12.29
2023-01-07T15:32:27.162Z,12.29
2023-01-07T15:35:00.109Z,12.15
2023-01-07T15:37:30.252Z,12.15
2023-01-07T15:40:01.004Z,12.14
2023-01-07T15:42:37.225Z,11.99
2023-01-07T15:45:19.463Z,11.99
2023-01-07T15:47:52.376Z,12.13
2023-01-07T15:50:33.866Z,12.01
2023-01-07T15:53:06.574Z,11.88
2023-01-07T15:55:43.349Z,11.82
2023-01-07T15:58:18.245Z,11.82
2023-01-07T16:00:53.219Z,11.98
2023-01-07T16:03:25.123Z,12.08
2023-01-07T16:05:59.364Z,12.15
2023-01-07T16:08:32.653Z,12.19
2023-01-07T16:11:05.716Z,12.25
2023-01-07T16:13:36.902Z,12.19
2023-01-07T16:16:19.322Z,12.15
2023-01-07T16:18:57.313Z,12.16
2023-01-07T16:21:31.936Z,12.19
2023-01-07T16:24:02.161Z,12.19
2023-01-07T16:26:40.312Z,12.24
2023-01-07T16:29:13.766Z,12.27
2023-01-07T16:31:44.056Z,12.26
2023-01-07T16:34:36.783Z,12.28
2023-01-07T16:37:15.511Z,12.17
2023-01-07T16:39:51.476Z,12.12
2023-01-07T16:42:23.815Z,12.10
2023-01-07T16:45:05.558Z,12.09
2023-01-07T16:47:37.158Z,12.10
2023-01-07T16:50:39.882Z,12.13
2023-01-07T16:53:30.011Z,12.13
2023-01-07T16:56:20.689Z,12.08
2023-01-07T16:58:53.523Z,12.15
2023-01-07T17:01:33.851Z,12.14
2023-01-07T17:04:12.533Z,12.13
2023-01-07T17:06:44.436Z,12.17
2023-01-07T17:09:38.991Z,12.28
2023-01-07T17:12:09.464Z,12.19
2023-01-07T17:14:54.011Z,12.24
2023-01-07T17:17:29.932Z,12.32
2023-01-07T17:20:19.804Z,12.26
2023-01-07T17:22:50.088Z,12.18
2023-01-07T17:25:28.455Z,12.23
2023-01-07T17:28:04.801Z,12.08
2023-01-07T17:30:39.603Z,12.04
2023-01-07T17:33:09.535Z,12.16
2023-01-07T17:35:47.171Z,12.19
2023-01-07T17:38:17.962Z,12.27
2023-01-07T17:40:52.167Z,12.22
2023-01-07T17:43:34.773Z,12.25
2023-01-07T17:46:06.512Z,12.27
2023-01-07T17:48:37.691Z,12.33
2023-01-07T17:51:09.463Z,12.11
2023-01-07T17:53:45.776Z,12.08
2023-01-07T17:56:18.847Z,11.95
2023-01-07T17:58:57.213Z,12.15
2023-01-07T18:01:28.749Z,12.22
2023-01-07T18:03:59.210Z,12.27
2023-01-07T18:06:31.161Z,12.27
2023-01-07T18:09:04.976Z,12.21
2023-01-07T18:11:53.290Z,12.14
2023-01-07T18:14:23.518Z,11.92
2023-01-07T18:16:53.921Z,12.06
2023-01-07T18:19:24.030Z,12.15
2023-01-07T18:21:54.102Z,12.26
2023-01-07T18:24:24.449Z,12.25
2023-01-07T18:26:57.036Z,12.24
2023-01-07T18:29:42.345Z,11.98
2023-01-07T18:32:13.761Z,12.14
2023-01-07T18:34:44.953Z,12.27
2023-01-07T18:37:15.751Z,12.11
2023-01-07T18:39:46.307Z,11.97
2023-01-07T18:42:20.103Z,12.14
2023-01-07T18:44:50.218Z,12.13
2023-01-07T18:47:20.347Z,11.98
2023-01-07T18:49:50.447Z,12.01
2023-01-07T18:52:20.963Z,11.95
2023-01-07T18:54:51.134Z,12.01
2023-01-07T18:57:24.102Z,12.04
2023-01-07T18:59:54.267Z,12.12
2023-01-07T19:02:25.235Z,12.18
2023-01-07T19:04:55.221Z,12.23
2023-01-07T19:07:27.915Z,12.19
2023-01-07T19:10:01.198Z,12.25
2023-01-07T19:12:33.851Z,12.05
2023-01-07T19:15:04.012Z,12.11
2023-01-07T19:17:33.938Z,12.15
2023-01-07T19:20:25.421Z,12.16
2023-01-07T19:23:00.397Z,12.20
2023-01-07T19:25:30.492Z,12.14
2023-01-07T19:28:03.111Z,12.15
2023-01-07T19:30:33.069Z,12.11
2023-01-07T19:33:03.053Z,12.11
2023-01-07T19:35:33.030Z,12.15
2023-01-07T19:38:04.236Z,12.09
2023-01-07T19:40:34.313Z,12.00
2023-01-07T19:43:06.996Z,12.04
2023-01-07T19:45:39.998Z,11.94
2023-01-07T19:48:10.425Z,11.93
2023-01-07T19:50:40.560Z,12.00
2023-01-07T19:53:11.724Z,11.95
2023-01-07T19:55:43.609Z,12.01
2023-01-07T19:58:19.359Z,11.97
2023-01-07T20:00:49.635Z,11.92
2023-01-07T20:03:19.735Z,11.92
2023-01-07T20:05:49.953Z,11.98
2023-01-07T20:08:20.166Z,11.98
2023-01-07T20:11:02.009Z,11.85
2023-01-07T20:13:36.601Z,11.95
2023-01-07T20:16:07.850Z,12.04
2023-01-07T20:18:40.181Z,11.82
2023-01-07T20:21:11.002Z,11.85
2023-01-07T20:23:42.472Z,11.88
2023-01-07T20:26:14.704Z,11.78
2023-01-07T20:28:50.073Z,11.79
2023-01-07T20:31:22.435Z,11.83
2023-01-07T20:33:55.723Z,11.75
2023-01-07T20:36:27.643Z,11.65
2023-01-07T20:39:05.281Z,11.70
2023-01-07T20:41:38.977Z,11.45
2023-01-07T20:44:21.786Z,11.71
2023-01-07T20:46:52.102Z,11.62
2023-01-07T20:49:25.811Z,11.92
2023-01-07T20:51:56.077Z,11.81
2023-01-07T20:54:26.716Z,11.97
2023-01-07T20:56:56.872Z,11.92
2023-01-07T20:59:29.504Z,11.83
2023-01-07T21:01:59.710Z,11.80
2023-01-07T21:04:30.898Z,11.76
2023-01-07T21:07:01.580Z,11.75
2023-01-07T21:09:31.694Z,11.87
2023-01-07T21:12:01.706Z,11.86
2023-01-07T21:14:36.807Z,11.80
2023-01-07T21:17:08.293Z,11.96
2023-01-07T21:19:41.047Z,11.73
2023-01-07T21:22:11.445Z,11.50
2023-01-07T21:24:44.004Z,11.65
2023-01-07T21:27:18.747Z,11.43
2023-01-07T21:29:51.885Z,11.67
2023-01-07T21:32:22.156Z,11.89
2023-01-07T21:34:52.193Z,11.77
2023-01-07T21:37:22.420Z,11.69
2023-01-07T21:39:58.851Z,11.76
2023-01-07T21:42:29.473Z,11.86
2023-01-07T21:45:02.135Z,11.87
2023-01-07T21:47:34.469Z,11.34
2023-01-07T21:50:04.913Z,11.40
2023-01-07T21:52:40.374Z,11.63
2023-01-07T21:55:12.683Z,11.75
2023-01-07T21:57:42.634Z,11.63
2023-01-07T22:00:17.128Z,11.43
2023-01-07T22:02:47.178Z,11.66
2023-01-07T22:05:17.370Z,11.47
2023-01-07T22:07:47.768Z,11.69
2023-01-07T22:10:17.939Z,11.84
2023-01-07T22:12:47.960Z,11.91
2023-01-07T22:15:20.808Z,11.93
2023-01-07T22:17:50.967Z,11.86
2023-01-07T22:20:21.149Z,11.89
2023-01-07T22:22:51.225Z,11.57
2023-01-07T22:25:21.280Z,11.36
2023-01-07T22:27:53.521Z,11.35
2023-01-07T22:30:34.939Z,11.33
2023-01-07T22:33:08.183Z,11.46
2023-01-07T22:35:38.543Z,11.47
2023-01-07T22:38:11.688Z,11.75
2023-01-07T22:40:42.801Z,11.63
2023-01-07T22:43:17.982Z,11.74
2023-01-07T22:45:54.666Z,11.64
2023-01-07T22:48:28.375Z,11.72
2023-01-07T22:51:03.482Z,11.64
2023-01-07T22:53:33.833Z,11.62
2023-01-07T22:56:06.021Z,11.72
2023-01-07T22:58:36.124Z,11.54
2023-01-07T23:01:19.649Z,11.49
2023-01-07T23:03:50.178Z,11.76
2023-01-07T23:06:20.207Z,11.67
2023-01-07T23:08:50.243Z,11.65
2023-01-07T23:11:32.476Z,11.31
2023-01-07T23:14:02.679Z,11.67
2023-01-07T23:16:38.329Z,11.85
2023-01-07T23:19:11.400Z,11.86
2023-01-07T23:21:43.430Z,11.85
2023-01-07T23:24:14.676Z,11.37
2023-01-07T23:26:46.583Z,11.57
2023-01-07T23:29:17.040Z,11.60
2023-01-07T23:31:49.988Z,11.43
2023-01-07T23:34:20.259Z,11.54
2023-01-07T23:36:50.285Z,11.36
2023-01-07T23:39:20.357Z,11.32
2023-01-07T23:41:50.665Z,11.56
2023-01-07T23:44:20.798Z,11.57
2023-01-07T23:46:53.369Z,11.72
2023-01-07T23:49:23.318Z,11.57
2023-01-07T23:51:53.335Z,11.19
2023-01-07T23:54:24.000Z,11.25
2023-01-07T23:56:54.608Z,11.34
2023-01-07T23:59:24.549Z,11.54
